sensor_id;sensor_type;location;lat;lon;timestamp;temperature;humidity
66722;SHT31;53633;49.932;10.884;2022-07-18T00:00:38;16.48;57.61
66722;SHT31;53633;49.932;10.884;2022-07-18T00:03:06;16.44;57.69
66722;SHT31;53633;49.932;10.884;2022-07-18T00:05:32;16.14;58.10
66722;SHT31;53633;49.932;10.884;2022-07-18T00:07:59;15.85;58.62
66722;SHT31;53633;49.932;10.884;2022-07-18T00:10:26;15.89;59.61
66722;SHT31;53633;49.932;10.884;2022-07-18T00:12:53;15.85;58.57
66722;SHT31;53633;49.932;10.884;2022-07-18T00:15:19;15.75;59.06
66722;SHT31;53633;49.932;10.884;2022-07-18T00:17:49;15.46;58.55
66722;SHT31;53633;49.932;10.884;2022-07-18T00:20:17;15.23;59.27
66722;SHT31;53633;49.932;10.884;2022-07-18T00:22:44;15.25;59.80
66722;SHT31;53633;49.932;10.884;2022-07-18T00:25:11;15.27;60.68
66722;SHT31;53633;49.932;10.884;2022-07-18T00:27:38;15.41;60.51
66722;SHT31;53633;49.932;10.884;2022-07-18T00:30:05;15.42;60.35
66722;SHT31;53633;49.932;10.884;2022-07-18T00:32:32;15.23;60.00
66722;SHT31;53633;49.932;10.884;2022-07-18T00:34:59;15.49;60.67
66722;SHT31;53633;49.932;10.884;2022-07-18T00:37:27;15.14;59.50
66722;SHT31;53633;49.932;10.884;2022-07-18T00:39:53;15.04;60.12
66722;SHT31;53633;49.932;10.884;2022-07-18T00:42:20;14.83;60.49
66722;SHT31;53633;49.932;10.884;2022-07-18T00:44:52;14.69;61.13
66722;SHT31;53633;49.932;10.884;2022-07-18T00:47:19;14.63;61.32
66722;SHT31;53633;49.932;10.884;2022-07-18T00:49:46;14.55;61.56
66722;SHT31;53633;49.932;10.884;2022-07-18T00:52:12;14.48;61.69
66722;SHT31;53633;49.932;10.884;2022-07-18T00:54:40;14.42;62.66
66722;SHT31;53633;49.932;10.884;2022-07-18T00:57:07;14.65;62.81
66722;SHT31;53633;49.932;10.884;2022-07-18T00:59:34;14.48;63.79
66722;SHT31;53633;49.932;10.884;2022-07-18T01:02:02;14.42;63.98
66722;SHT31;53633;49.932;10.884;2022-07-18T01:04:29;14.83;63.50
66722;SHT31;53633;49.932;10.884;2022-07-18T01:06:56;15.11;62.37
66722;SHT31;53633;49.932;10.884;2022-07-18T01:09:24;15.36;61.85
66722;SHT31;53633;49.932;10.884;2022-07-18T01:11:52;15.16;61.86
66722;SHT31;53633;49.932;10.884;2022-07-18T01:14:19;15.11;62.33
66722;SHT31;53633;49.932;10.884;2022-07-18T01:16:46;15.28;62.35
66722;SHT31;53633;49.932;10.884;2022-07-18T01:19:12;15.21;62.48
66722;SHT31;53633;49.932;10.884;2022-07-18T01:21:40;15.38;61.19
66722;SHT31;53633;49.932;10.884;2022-07-18T01:24:07;15.07;61.99
66722;SHT31;53633;49.932;10.884;2022-07-18T01:26:34;14.96;62.23
66722;SHT31;53633;49.932;10.884;2022-07-18T01:29:01;14.79;63.02
66722;SHT31;53633;49.932;10.884;2022-07-18T01:31:28;14.62;62.98
66722;SHT31;53633;49.932;10.884;2022-07-18T01:33:54;14.84;63.02
66722;SHT31;53633;49.932;10.884;2022-07-18T01:36:21;14.94;62.36
66722;SHT31;53633;49.932;10.884;2022-07-18T01:38:49;15.18;61.35
66722;SHT31;53633;49.932;10.884;2022-07-18T01:41:16;14.96;61.70
66722;SHT31;53633;49.932;10.884;2022-07-18T01:43:43;14.87;62.10
66722;SHT31;53633;49.932;10.884;2022-07-18T01:46:10;14.90;61.79
66722;SHT31;53633;49.932;10.884;2022-07-18T01:48:38;14.86;61.67
66722;SHT31;53633;49.932;10.884;2022-07-18T01:51:05;14.53;62.54
66722;SHT31;53633;49.932;10.884;2022-07-18T01:53:32;14.29;63.12
66722;SHT31;53633;49.932;10.884;2022-07-18T01:56:00;14.03;64.08
66722;SHT31;53633;49.932;10.884;2022-07-18T01:58:26;13.94;64.61
66722;SHT31;53633;49.932;10.884;2022-07-18T02:00:53;13.86;64.92
66722;SHT31;53633;49.932;10.884;2022-07-18T02:03:20;13.63;65.58
66722;SHT31;53633;49.932;10.884;2022-07-18T02:05:46;13.50;65.86
66722;SHT31;53633;49.932;10.884;2022-07-18T02:08:13;13.57;66.11
66722;SHT31;53633;49.932;10.884;2022-07-18T02:10:40;13.42;66.53
66722;SHT31;53633;49.932;10.884;2022-07-18T02:13:08;13.55;66.69
66722;SHT31;53633;49.932;10.884;2022-07-18T02:15:35;13.53;66.35
66722;SHT31;53633;49.932;10.884;2022-07-18T02:18:02;13.38;66.48
66722;SHT31;53633;49.932;10.884;2022-07-18T02:20:28;13.67;66.52
66722;SHT31;53633;49.932;10.884;2022-07-18T02:22:55;13.57;66.20
66722;SHT31;53633;49.932;10.884;2022-07-18T02:25:22;13.57;66.18
66722;SHT31;53633;49.932;10.884;2022-07-18T02:27:48;13.36;66.33
66722;SHT31;53633;49.932;10.884;2022-07-18T02:30:16;13.42;66.91
66722;SHT31;53633;49.932;10.884;2022-07-18T02:32:43;13.53;64.88
66722;SHT31;53633;49.932;10.884;2022-07-18T02:35:10;13.88;64.48
66722;SHT31;53633;49.932;10.884;2022-07-18T02:37:38;14.32;62.79
66722;SHT31;53633;49.932;10.884;2022-07-18T02:40:06;13.90;62.91
66722;SHT31;53633;49.932;10.884;2022-07-18T02:42:33;14.01;64.11
66722;SHT31;53633;49.932;10.884;2022-07-18T02:45:00;14.14;63.38
66722;SHT31;53633;49.932;10.884;2022-07-18T02:47:28;13.98;62.76
66722;SHT31;53633;49.932;10.884;2022-07-18T02:49:55;14.08;63.53
66722;SHT31;53633;49.932;10.884;2022-07-18T02:52:21;14.17;63.43
66722;SHT31;53633;49.932;10.884;2022-07-18T02:54:48;14.22;63.09
66722;SHT31;53633;49.932;10.884;2022-07-18T02:57:15;14.04;62.52
66722;SHT31;53633;49.932;10.884;2022-07-18T02:59:43;13.62;63.74
66722;SHT31;53633;49.932;10.884;2022-07-18T03:02:10;13.35;64.89
66722;SHT31;53633;49.932;10.884;2022-07-18T03:04:38;13.12;65.76
66722;SHT31;53633;49.932;10.884;2022-07-18T03:07:04;13.07;65.89
66722;SHT31;53633;49.932;10.884;2022-07-18T03:09:31;13.23;66.14
66722;SHT31;53633;49.932;10.884;2022-07-18T03:11:58;13.08;66.37
66722;SHT31;53633;49.932;10.884;2022-07-18T03:14:24;13.15;66.75
66722;SHT31;53633;49.932;10.884;2022-07-18T03:16:51;12.91;66.90
66722;SHT31;53633;49.932;10.884;2022-07-18T03:19:18;12.77;67.55
66722;SHT31;53633;49.932;10.884;2022-07-18T03:21:47;12.70;67.76
66722;SHT31;53633;49.932;10.884;2022-07-18T03:24:14;12.74;68.26
66722;SHT31;53633;49.932;10.884;2022-07-18T03:26:42;12.63;68.86
66722;SHT31;53633;49.932;10.884;2022-07-18T03:29:09;12.66;69.26
66722;SHT31;53633;49.932;10.884;2022-07-18T03:31:37;12.57;69.33
66722;SHT31;53633;49.932;10.884;2022-07-18T03:34:03;12.60;69.01
66722;SHT31;53633;49.932;10.884;2022-07-18T03:36:30;12.56;69.47
66722;SHT31;53633;49.932;10.884;2022-07-18T03:38:59;12.87;69.45
66722;SHT31;53633;49.932;10.884;2022-07-18T03:41:25;12.81;69.19
66722;SHT31;53633;49.932;10.884;2022-07-18T03:43:52;12.91;68.65
66722;SHT31;53633;49.932;10.884;2022-07-18T03:46:19;12.79;68.42
66722;SHT31;53633;49.932;10.884;2022-07-18T03:48:45;12.77;68.37
66722;SHT31;53633;49.932;10.884;2022-07-18T03:51:12;12.68;68.13
66722;SHT31;53633;49.932;10.884;2022-07-18T03:53:39;12.63;67.97
66722;SHT31;53633;49.932;10.884;2022-07-18T03:56:07;12.61;68.22
66722;SHT31;53633;49.932;10.884;2022-07-18T03:58:34;12.56;68.83
66722;SHT31;53633;49.932;10.884;2022-07-18T04:01:01;12.56;69.38
66722;SHT31;53633;49.932;10.884;2022-07-18T04:03:28;12.60;69.17
66722;SHT31;53633;49.932;10.884;2022-07-18T04:05:55;12.61;68.23
66722;SHT31;53633;49.932;10.884;2022-07-18T04:08:21;12.74;68.42
66722;SHT31;53633;49.932;10.884;2022-07-18T04:10:48;12.95;67.79
66722;SHT31;53633;49.932;10.884;2022-07-18T04:13:16;12.98;67.70
66722;SHT31;53633;49.932;10.884;2022-07-18T04:15:44;13.08;67.40
66722;SHT31;53633;49.932;10.884;2022-07-18T04:18:11;13.59;66.17
66722;SHT31;53633;49.932;10.884;2022-07-18T04:20:38;15.08;61.83
66722;SHT31;53633;49.932;10.884;2022-07-18T04:23:06;16.37;57.57
66722;SHT31;53633;49.932;10.884;2022-07-18T04:25:35;17.61;54.19
66722;SHT31;53633;49.932;10.884;2022-07-18T04:28:03;18.53;51.69
66722;SHT31;53633;49.932;10.884;2022-07-18T04:30:32;19.40;49.33
66722;SHT31;53633;49.932;10.884;2022-07-18T04:33:01;19.54;48.37
66722;SHT31;53633;49.932;10.884;2022-07-18T04:35:29;19.79;47.68
66722;SHT31;53633;49.932;10.884;2022-07-18T04:37:55;19.85;46.97
66722;SHT31;53633;49.932;10.884;2022-07-18T04:40:22;19.53;47.44
66722;SHT31;53633;49.932;10.884;2022-07-18T04:42:49;19.70;46.32
66722;SHT31;53633;49.932;10.884;2022-07-18T04:45:16;19.10;48.16
66722;SHT31;53633;49.932;10.884;2022-07-18T04:47:44;18.96;48.11
66722;SHT31;53633;49.932;10.884;2022-07-18T04:50:11;19.09;47.99
66722;SHT31;53633;49.932;10.884;2022-07-18T04:52:39;18.99;48.76
66722;SHT31;53633;49.932;10.884;2022-07-18T04:55:08;19.12;48.62
66722;SHT31;53633;49.932;10.884;2022-07-18T04:57:35;19.51;47.51
66722;SHT31;53633;49.932;10.884;2022-07-18T05:00:03;19.92;47.09
66722;SHT31;53633;49.932;10.884;2022-07-18T05:02:30;19.64;47.10
66722;SHT31;53633;49.932;10.884;2022-07-18T05:04:59;20.16;45.68
66722;SHT31;53633;49.932;10.884;2022-07-18T05:07:25;20.80;44.62
66722;SHT31;53633;49.932;10.884;2022-07-18T05:09:52;21.16;44.01
66722;SHT31;53633;49.932;10.884;2022-07-18T05:12:19;21.59;42.97
66722;SHT31;53633;49.932;10.884;2022-07-18T05:14:46;22.41;42.16
66722;SHT31;53633;49.932;10.884;2022-07-18T05:17:16;22.31;41.84
66722;SHT31;53633;49.932;10.884;2022-07-18T05:19:43;22.82;40.36
66722;SHT31;53633;49.932;10.884;2022-07-18T05:22:11;22.66;40.88
66722;SHT31;53633;49.932;10.884;2022-07-18T05:24:37;22.80;41.41
66722;SHT31;53633;49.932;10.884;2022-07-18T05:27:04;22.56;41.36
66722;SHT31;53633;49.932;10.884;2022-07-18T05:29:31;23.41;39.73
66722;SHT31;53633;49.932;10.884;2022-07-18T05:31:58;23.73;39.15
66722;SHT31;53633;49.932;10.884;2022-07-18T05:34:25;23.73;39.87
66722;SHT31;53633;49.932;10.884;2022-07-18T05:36:51;23.82;39.75
66722;SHT31;53633;49.932;10.884;2022-07-18T05:39:19;23.89;38.97
66722;SHT31;53633;49.932;10.884;2022-07-18T05:41:46;24.31;38.28
66722;SHT31;53633;49.932;10.884;2022-07-18T05:44:13;25.08;37.09
66722;SHT31;53633;49.932;10.884;2022-07-18T05:46:39;25.50;36.49
66722;SHT31;53633;49.932;10.884;2022-07-18T05:49:06;24.81;37.32
66722;SHT31;53633;49.932;10.884;2022-07-18T05:51:33;25.20;36.77
66722;SHT31;53633;49.932;10.884;2022-07-18T05:53:59;25.33;36.80
66722;SHT31;53633;49.932;10.884;2022-07-18T05:56:27;25.88;34.79
66722;SHT31;53633;49.932;10.884;2022-07-18T05:58:54;26.40;34.24
66722;SHT31;53633;49.932;10.884;2022-07-18T06:01:21;27.14;33.32
66722;SHT31;53633;49.932;10.884;2022-07-18T06:03:48;26.70;34.13
66722;SHT31;53633;49.932;10.884;2022-07-18T06:06:15;27.11;32.61
66722;SHT31;53633;49.932;10.884;2022-07-18T06:08:42;27.23;33.42
66722;SHT31;53633;49.932;10.884;2022-07-18T06:11:09;27.46;32.70
66722;SHT31;53633;49.932;10.884;2022-07-18T06:13:39;28.35;31.18
66722;SHT31;53633;49.932;10.884;2022-07-18T06:16:07;27.71;32.92
66722;SHT31;53633;49.932;10.884;2022-07-18T06:18:34;27.52;33.07
66722;SHT31;53633;49.932;10.884;2022-07-18T06:21:01;28.56;31.20
66722;SHT31;53633;49.932;10.884;2022-07-18T06:23:27;29.87;29.31
66722;SHT31;53633;49.932;10.884;2022-07-18T06:25:54;29.62;29.95
66722;SHT31;53633;49.932;10.884;2022-07-18T06:28:21;30.99;28.01
66722;SHT31;53633;49.932;10.884;2022-07-18T06:30:49;30.59;28.61
66722;SHT31;53633;49.932;10.884;2022-07-18T06:33:16;31.38;27.23
66722;SHT31;53633;49.932;10.884;2022-07-18T06:35:43;31.99;26.21
66722;SHT31;53633;49.932;10.884;2022-07-18T06:38:09;32.43;25.05
66722;SHT31;53633;49.932;10.884;2022-07-18T06:40:36;32.77;24.68
66722;SHT31;53633;49.932;10.884;2022-07-18T06:43:04;32.17;25.53
66722;SHT31;53633;49.932;10.884;2022-07-18T06:45:31;32.71;26.03
66722;SHT31;53633;49.932;10.884;2022-07-18T06:47:59;31.23;27.01
66722;SHT31;53633;49.932;10.884;2022-07-18T06:50:26;31.65;26.78
66722;SHT31;53633;49.932;10.884;2022-07-18T06:52:53;31.67;27.38
66722;SHT31;53633;49.932;10.884;2022-07-18T06:55:20;30.75;28.93
66722;SHT31;53633;49.932;10.884;2022-07-18T06:57:47;30.80;28.43
66722;SHT31;53633;49.932;10.884;2022-07-18T07:00:14;30.59;28.08
66722;SHT31;53633;49.932;10.884;2022-07-18T07:02:42;31.19;27.52
66722;SHT31;53633;49.932;10.884;2022-07-18T07:05:11;32.12;25.54
66722;SHT31;53633;49.932;10.884;2022-07-18T07:07:38;32.19;25.74
66722;SHT31;53633;49.932;10.884;2022-07-18T07:10:14;30.45;29.02
66722;SHT31;53633;49.932;10.884;2022-07-18T07:12:42;30.79;28.09
66722;SHT31;53633;49.932;10.884;2022-07-18T07:15:09;32.54;24.99
66722;SHT31;53633;49.932;10.884;2022-07-18T07:17:36;33.41;23.44
66722;SHT31;53633;49.932;10.884;2022-07-18T07:20:04;33.26;23.30
66722;SHT31;53633;49.932;10.884;2022-07-18T07:22:40;33.32;23.48
66722;SHT31;53633;49.932;10.884;2022-07-18T07:25:08;32.97;24.07
66722;SHT31;53633;49.932;10.884;2022-07-18T07:27:34;31.86;25.52
66722;SHT31;53633;49.932;10.884;2022-07-18T07:30:01;31.77;25.50
66722;SHT31;53633;49.932;10.884;2022-07-18T07:32:28;31.67;25.14
66722;SHT31;53633;49.932;10.884;2022-07-18T07:34:55;32.15;24.29
66722;SHT31;53633;49.932;10.884;2022-07-18T07:37:21;31.23;26.70
66722;SHT31;53633;49.932;10.884;2022-07-18T07:39:56;31.45;24.58
66722;SHT31;53633;49.932;10.884;2022-07-18T07:42:22;31.50;24.34
66722;SHT31;53633;49.932;10.884;2022-07-18T07:44:49;31.57;26.26
66722;SHT31;53633;49.932;10.884;2022-07-18T07:47:16;31.53;25.85
66722;SHT31;53633;49.932;10.884;2022-07-18T07:49:42;31.37;24.36
66722;SHT31;53633;49.932;10.884;2022-07-18T07:52:09;30.86;25.25
66722;SHT31;53633;49.932;10.884;2022-07-18T07:54:36;30.65;25.82
66722;SHT31;53633;49.932;10.884;2022-07-18T07:57:04;30.88;24.95
66722;SHT31;53633;49.932;10.884;2022-07-18T07:59:31;30.75;26.20
66722;SHT31;53633;49.932;10.884;2022-07-18T08:01:57;31.20;25.05
66722;SHT31;53633;49.932;10.884;2022-07-18T08:04:24;31.27;25.27
66722;SHT31;53633;49.932;10.884;2022-07-18T08:06:51;31.64;25.72
66722;SHT31;53633;49.932;10.884;2022-07-18T08:09:18;31.24;24.04
66722;SHT31;53633;49.932;10.884;2022-07-18T08:11:44;31.53;24.80
66722;SHT31;53633;49.932;10.884;2022-07-18T08:14:12;31.68;24.05
66722;SHT31;53633;49.932;10.884;2022-07-18T08:16:39;31.58;22.72
66722;SHT31;53633;49.932;10.884;2022-07-18T08:19:06;31.64;22.21
66722;SHT31;53633;49.932;10.884;2022-07-18T08:21:33;32.09;23.82
66722;SHT31;53633;49.932;10.884;2022-07-18T08:24:00;32.46;22.84
66722;SHT31;53633;49.932;10.884;2022-07-18T08:26:31;32.57;24.08
66722;SHT31;53633;49.932;10.884;2022-07-18T08:28:58;32.46;22.85
66722;SHT31;53633;49.932;10.884;2022-07-18T08:31:26;32.33;23.69
66722;SHT31;53633;49.932;10.884;2022-07-18T08:33:53;31.71;22.19
66722;SHT31;53633;49.932;10.884;2022-07-18T08:36:20;32.05;22.29
66722;SHT31;53633;49.932;10.884;2022-07-18T08:38:47;32.56;24.73
66722;SHT31;53633;49.932;10.884;2022-07-18T08:41:14;33.14;23.95
66722;SHT31;53633;49.932;10.884;2022-07-18T08:43:43;33.74;23.94
66722;SHT31;53633;49.932;10.884;2022-07-18T08:46:11;33.50;22.54
66722;SHT31;53633;49.932;10.884;2022-07-18T08:48:41;33.66;23.35
66722;SHT31;53633;49.932;10.884;2022-07-18T08:51:08;34.18;20.40
66722;SHT31;53633;49.932;10.884;2022-07-18T08:53:35;34.75;21.85
66722;SHT31;53633;49.932;10.884;2022-07-18T08:56:02;34.76;20.31
66722;SHT31;53633;49.932;10.884;2022-07-18T08:58:29;34.93;20.90
66722;SHT31;53633;49.932;10.884;2022-07-18T09:01:12;35.13;20.87
66722;SHT31;53633;49.932;10.884;2022-07-18T09:03:40;35.13;20.05
66722;SHT31;53633;49.932;10.884;2022-07-18T09:06:09;35.17;20.84
66722;SHT31;53633;49.932;10.884;2022-07-18T09:08:38;35.21;20.81
66722;SHT31;53633;49.932;10.884;2022-07-18T09:11:10;34.96;20.35
66722;SHT31;53633;49.932;10.884;2022-07-18T09:13:56;35.06;20.50
66722;SHT31;53633;49.932;10.884;2022-07-18T09:16:23;34.63;21.22
66722;SHT31;53633;49.932;10.884;2022-07-18T09:18:51;34.75;20.45
66722;SHT31;53633;49.932;10.884;2022-07-18T09:21:20;35.15;19.23
66722;SHT31;53633;49.932;10.884;2022-07-18T09:23:49;35.52;20.17
66722;SHT31;53633;49.932;10.884;2022-07-18T09:26:40;35.06;21.04
66722;SHT31;53633;49.932;10.884;2022-07-18T09:29:08;35.41;21.41
66722;SHT31;53633;49.932;10.884;2022-07-18T09:31:53;35.38;19.89
66722;SHT31;53633;49.932;10.884;2022-07-18T09:34:34;34.97;20.58
66722;SHT31;53633;49.932;10.884;2022-07-18T09:37:01;34.82;21.49
66722;SHT31;53633;49.932;10.884;2022-07-18T09:39:28;35.37;22.14
66722;SHT31;53633;49.932;10.884;2022-07-18T09:42:12;35.13;20.83
66722;SHT31;53633;49.932;10.884;2022-07-18T09:44:39;35.54;22.32
66722;SHT31;53633;49.932;10.884;2022-07-18T09:47:05;35.08;22.11
66722;SHT31;53633;49.932;10.884;2022-07-18T09:49:33;35.31;18.55
66722;SHT31;53633;49.932;10.884;2022-07-18T09:52:03;35.45;19.39
66722;SHT31;53633;49.932;10.884;2022-07-18T09:54:36;35.64;20.96
66722;SHT31;53633;49.932;10.884;2022-07-18T09:57:03;35.44;20.31
66722;SHT31;53633;49.932;10.884;2022-07-18T09:59:29;35.31;18.93
66722;SHT31;53633;49.932;10.884;2022-07-18T10:01:57;35.42;17.90
66722;SHT31;53633;49.932;10.884;2022-07-18T10:04:23;35.13;19.38
66722;SHT31;53633;49.932;10.884;2022-07-18T10:06:52;35.65;19.06
66722;SHT31;53633;49.932;10.884;2022-07-18T10:09:18;36.22;17.01
66722;SHT31;53633;49.932;10.884;2022-07-18T10:11:46;35.93;19.02
66722;SHT31;53633;49.932;10.884;2022-07-18T10:14:12;35.34;19.60
66722;SHT31;53633;49.932;10.884;2022-07-18T10:16:41;35.10;19.49
66722;SHT31;53633;49.932;10.884;2022-07-18T10:19:07;34.68;20.35
66722;SHT31;53633;49.932;10.884;2022-07-18T10:21:34;34.41;20.75
66722;SHT31;53633;49.932;10.884;2022-07-18T10:24:03;34.00;21.66
66722;SHT31;53633;49.932;10.884;2022-07-18T10:26:30;34.12;21.11
66722;SHT31;53633;49.932;10.884;2022-07-18T10:29:12;33.78;22.97
66722;SHT31;53633;49.932;10.884;2022-07-18T10:32:00;32.37;21.30
66722;SHT31;53633;49.932;10.884;2022-07-18T10:34:32;32.37;22.98
66722;SHT31;53633;49.932;10.884;2022-07-18T10:37:10;31.62;24.23
66722;SHT31;53633;49.932;10.884;2022-07-18T10:39:39;31.75;24.07
66722;SHT31;53633;49.932;10.884;2022-07-18T10:42:17;31.82;22.38
66722;SHT31;53633;49.932;10.884;2022-07-18T10:44:44;31.78;25.00
66722;SHT31;53633;49.932;10.884;2022-07-18T10:47:13;31.79;24.62
66722;SHT31;53633;49.932;10.884;2022-07-18T10:50:01;31.71;24.33
66722;SHT31;53633;49.932;10.884;2022-07-18T10:52:55;31.37;23.42
66722;SHT31;53633;49.932;10.884;2022-07-18T10:55:33;31.45;23.45
66722;SHT31;53633;49.932;10.884;2022-07-18T10:58:16;31.47;23.38
66722;SHT31;53633;49.932;10.884;2022-07-18T11:00:46;31.34;24.91
66722;SHT31;53633;49.932;10.884;2022-07-18T11:03:17;31.33;24.98
66722;SHT31;53633;49.932;10.884;2022-07-18T11:05:51;31.34;24.83
66722;SHT31;53633;49.932;10.884;2022-07-18T11:08:20;31.41;23.44
66722;SHT31;53633;49.932;10.884;2022-07-18T11:11:13;31.20;25.16
66722;SHT31;53633;49.932;10.884;2022-07-18T11:13:42;31.06;25.10
66722;SHT31;53633;49.932;10.884;2022-07-18T11:16:11;31.12;23.80
66722;SHT31;53633;49.932;10.884;2022-07-18T11:21:38;31.27;23.29
66722;SHT31;53633;49.932;10.884;2022-07-18T11:24:07;31.35;22.59
66722;SHT31;53633;49.932;10.884;2022-07-18T11:26:37;31.30;24.27
66722;SHT31;53633;49.932;10.884;2022-07-18T11:29:05;31.29;23.11
66722;SHT31;53633;49.932;10.884;2022-07-18T11:31:43;31.30;22.64
66722;SHT31;53633;49.932;10.884;2022-07-18T11:34:10;31.51;21.53
66722;SHT31;53633;49.932;10.884;2022-07-18T11:36:39;31.47;23.67
66722;SHT31;53633;49.932;10.884;2022-07-18T11:39:07;31.31;22.71
66722;SHT31;53633;49.932;10.884;2022-07-18T11:41:38;31.23;23.07
66722;SHT31;53633;49.932;10.884;2022-07-18T11:44:04;31.22;23.27
66722;SHT31;53633;49.932;10.884;2022-07-18T11:46:31;31.40;22.40
66722;SHT31;53633;49.932;10.884;2022-07-18T11:48:59;31.19;21.01
66722;SHT31;53633;49.932;10.884;2022-07-18T11:51:33;31.09;21.54
66722;SHT31;53633;49.932;10.884;2022-07-18T11:54:00;31.04;23.87
66722;SHT31;53633;49.932;10.884;2022-07-18T11:56:27;31.10;22.11
66722;SHT31;53633;49.932;10.884;2022-07-18T11:58:55;31.14;21.77
66722;SHT31;53633;49.932;10.884;2022-07-18T12:01:22;31.14;23.09
66722;SHT31;53633;49.932;10.884;2022-07-18T12:03:56;31.20;23.03
66722;SHT31;53633;49.932;10.884;2022-07-18T12:06:24;31.22;22.49
66722;SHT31;53633;49.932;10.884;2022-07-18T12:08:52;31.16;21.43
66722;SHT31;53633;49.932;10.884;2022-07-18T12:11:26;30.95;21.13
66722;SHT31;53633;49.932;10.884;2022-07-18T12:13:56;31.07;24.16
66722;SHT31;53633;49.932;10.884;2022-07-18T12:16:33;31.00;20.47
66722;SHT31;53633;49.932;10.884;2022-07-18T12:19:03;31.09;20.34
66722;SHT31;53633;49.932;10.884;2022-07-18T12:21:45;31.12;21.53
66722;SHT31;53633;49.932;10.884;2022-07-18T12:24:34;31.24;20.95
66722;SHT31;53633;49.932;10.884;2022-07-18T12:27:15;31.33;21.85
66722;SHT31;53633;49.932;10.884;2022-07-18T12:30:10;31.24;22.75
66722;SHT31;53633;49.932;10.884;2022-07-18T12:32:40;31.26;23.34
66722;SHT31;53633;49.932;10.884;2022-07-18T12:35:09;31.33;22.36
66722;SHT31;53633;49.932;10.884;2022-07-18T12:37:36;31.30;22.85
66722;SHT31;53633;49.932;10.884;2022-07-18T12:40:12;30.92;21.00
66722;SHT31;53633;49.932;10.884;2022-07-18T12:43:02;31.03;23.69
66722;SHT31;53633;49.932;10.884;2022-07-18T12:45:31;31.07;22.16
66722;SHT31;53633;49.932;10.884;2022-07-18T12:47:58;31.17;22.59
66722;SHT31;53633;49.932;10.884;2022-07-18T12:50:24;31.20;22.47
66722;SHT31;53633;49.932;10.884;2022-07-18T12:52:51;31.33;22.89
66722;SHT31;53633;49.932;10.884;2022-07-18T12:55:18;31.34;23.02
66722;SHT31;53633;49.932;10.884;2022-07-18T12:57:45;31.31;22.77
66722;SHT31;53633;49.932;10.884;2022-07-18T13:00:12;31.29;22.80
66722;SHT31;53633;49.932;10.884;2022-07-18T13:02:42;31.29;24.07
66722;SHT31;53633;49.932;10.884;2022-07-18T13:05:09;31.31;22.63
66722;SHT31;53633;49.932;10.884;2022-07-18T13:07:35;31.30;23.46
66722;SHT31;53633;49.932;10.884;2022-07-18T13:10:03;31.40;21.79
66722;SHT31;53633;49.932;10.884;2022-07-18T13:12:30;31.45;21.53
66722;SHT31;53633;49.932;10.884;2022-07-18T13:14:57;31.47;22.52
66722;SHT31;53633;49.932;10.884;2022-07-18T13:17:24;31.41;23.42
66722;SHT31;53633;49.932;10.884;2022-07-18T13:19:57;31.48;23.08
66722;SHT31;53633;49.932;10.884;2022-07-18T13:22:24;31.54;22.67
66722;SHT31;53633;49.932;10.884;2022-07-18T13:24:51;31.65;23.30
66722;SHT31;53633;49.932;10.884;2022-07-18T13:27:17;31.71;22.94
66722;SHT31;53633;49.932;10.884;2022-07-18T13:29:44;31.60;23.41
66722;SHT31;53633;49.932;10.884;2022-07-18T13:32:11;31.61;23.95
66722;SHT31;53633;49.932;10.884;2022-07-18T13:34:38;31.71;22.70
66722;SHT31;53633;49.932;10.884;2022-07-18T13:37:08;31.67;23.13
66722;SHT31;53633;49.932;10.884;2022-07-18T13:39:34;31.74;22.10
66722;SHT31;53633;49.932;10.884;2022-07-18T13:42:01;31.81;21.99
66722;SHT31;53633;49.932;10.884;2022-07-18T13:44:28;32.01;23.07
66722;SHT31;53633;49.932;10.884;2022-07-18T13:46:54;31.86;22.04
66722;SHT31;53633;49.932;10.884;2022-07-18T13:49:21;31.64;22.92
66722;SHT31;53633;49.932;10.884;2022-07-18T13:51:48;31.43;22.91
66722;SHT31;53633;49.932;10.884;2022-07-18T13:54:16;31.47;23.50
66722;SHT31;53633;49.932;10.884;2022-07-18T13:56:42;31.58;23.42
66722;SHT31;53633;49.932;10.884;2022-07-18T13:59:09;31.57;22.48
66722;SHT31;53633;49.932;10.884;2022-07-18T14:01:36;31.61;23.41
66722;SHT31;53633;49.932;10.884;2022-07-18T14:04:04;31.58;24.26
66722;SHT31;53633;49.932;10.884;2022-07-18T14:06:31;31.70;22.38
66722;SHT31;53633;49.932;10.884;2022-07-18T14:08:57;31.67;22.87
66722;SHT31;53633;49.932;10.884;2022-07-18T14:11:25;31.44;21.66
66722;SHT31;53633;49.932;10.884;2022-07-18T14:13:52;31.33;22.58
66722;SHT31;53633;49.932;10.884;2022-07-18T14:16:19;31.43;21.94
66722;SHT31;53633;49.932;10.884;2022-07-18T14:18:46;31.50;22.49
66722;SHT31;53633;49.932;10.884;2022-07-18T14:21:13;31.61;22.41
66722;SHT31;53633;49.932;10.884;2022-07-18T14:23:43;31.65;21.00
66722;SHT31;53633;49.932;10.884;2022-07-18T14:26:10;31.81;21.36
66722;SHT31;53633;49.932;10.884;2022-07-18T14:28:38;31.89;20.89
66722;SHT31;53633;49.932;10.884;2022-07-18T14:31:05;31.95;21.25
66722;SHT31;53633;49.932;10.884;2022-07-18T14:33:31;32.10;22.09
66722;SHT31;53633;49.932;10.884;2022-07-18T14:35:58;32.12;20.97
66722;SHT31;53633;49.932;10.884;2022-07-18T14:38:25;31.93;21.54
66722;SHT31;53633;49.932;10.884;2022-07-18T14:40:52;31.81;21.01
66722;SHT31;53633;49.932;10.884;2022-07-18T14:43:19;31.92;20.91
66722;SHT31;53633;49.932;10.884;2022-07-18T14:45:47;31.92;22.01
66722;SHT31;53633;49.932;10.884;2022-07-18T14:48:28;32.19;20.76
66722;SHT31;53633;49.932;10.884;2022-07-18T14:50:55;32.30;22.73
66722;SHT31;53633;49.932;10.884;2022-07-18T14:53:22;32.19;21.31
66722;SHT31;53633;49.932;10.884;2022-07-18T14:55:49;32.10;21.60
66722;SHT31;53633;49.932;10.884;2022-07-18T14:58:16;32.06;21.65
66722;SHT31;53633;49.932;10.884;2022-07-18T15:00:44;32.13;21.47
66722;SHT31;53633;49.932;10.884;2022-07-18T15:03:13;31.99;21.79
66722;SHT31;53633;49.932;10.884;2022-07-18T15:05:59;31.86;20.79
66722;SHT31;53633;49.932;10.884;2022-07-18T15:08:26;31.86;21.08
66722;SHT31;53633;49.932;10.884;2022-07-18T15:10:52;32.05;22.00
66722;SHT31;53633;49.932;10.884;2022-07-18T15:13:19;32.09;22.44
66722;SHT31;53633;49.932;10.884;2022-07-18T15:15:46;31.95;22.94
66722;SHT31;53633;49.932;10.884;2022-07-18T15:18:14;31.75;21.94
66722;SHT31;53633;49.932;10.884;2022-07-18T15:20:41;31.79;22.39
66722;SHT31;53633;49.932;10.884;2022-07-18T15:23:10;31.70;21.24
66722;SHT31;53633;49.932;10.884;2022-07-18T15:25:37;31.75;21.78